createdAt,value
2023-03-24T00:01:08.260Z,7.90
2023-03-24T00:03:36.468Z,6.95
2023-03-24T00:06:11.448Z,7.72
2023-03-24T00:08:38.708Z,6.80
2023-03-24T00:11:20.388Z,7.72
2023-03-24T00:13:50.399Z,7.38
2023-03-24T00:16:26.506Z,6.95
2023-03-24T00:19:00.312Z,8.75
2023-03-24T00:21:41.260Z,7.22
2023-03-24T00:24:08.775Z,7.55
2023-03-24T00:29:12.298Z,7.93
2023-03-24T00:31:40.129Z,6.65
2023-03-24T00:34:15.361Z,7.32
2023-03-24T00:36:42.559Z,7.47
2023-03-24T02:56:45.414Z,11.85
2023-03-24T02:59:28.345Z,13.18
2023-03-24T03:02:22.445Z,12.43
2023-03-24T03:04:55.018Z,12.85
2023-03-24T03:07:31.457Z,13.32
2023-03-24T03:10:00.759Z,14.65
2023-03-24T03:12:29.379Z,12.45
2023-03-24T03:15:05.319Z,13.35
2023-03-24T03:17:42.358Z,13.82
2023-03-24T03:20:19.299Z,13.35
2023-03-24T03:22:56.288Z,12.32
2023-03-24T03:25:26.599Z,13.82
2023-03-24T03:28:03.319Z,14.38
2023-03-24T03:30:37.737Z,14.68
2023-03-24T03:33:24.302Z,13.77
2023-03-24T03:35:57.639Z,15.48
2023-03-24T03:38:34.309Z,14.40
2023-03-24T03:41:03.280Z,16.15
2023-03-24T03:43:37.307Z,15.38
2023-03-24T03:46:06.637Z,13.73
2023-03-24T03:48:41.462Z,15.75
2023-03-24T03:51:13.718Z,13.93
2023-03-24T03:53:54.349Z,13.90
2023-03-24T03:56:29.567Z,14.50
2023-03-24T03:59:04.112Z,15.85
2023-03-24T04:01:40.631Z,14.48
2023-03-24T04:04:27.041Z,15.10
2023-03-24T04:07:06.794Z,15.00
2023-03-24T04:09:47.304Z,13.88
2023-03-24T04:12:24.432Z,14.65
2023-03-24T04:15:21.357Z,13.75
2023-03-24T04:18:12.360Z,13.52
2023-03-24T04:21:04.328Z,15.02
2023-03-24T04:23:50.645Z,13.65
2023-03-24T04:26:32.424Z,14.23
2023-03-24T04:29:18.418Z,14.25
2023-03-24T04:31:55.313Z,16.10
2023-03-24T04:34:26.247Z,15.35
2023-03-24T04:37:02.308Z,15.93
2023-03-24T04:39:30.614Z,17.08
2023-03-24T04:42:06.322Z,16.48
2023-03-24T04:44:33.845Z,15.35
2023-03-24T04:49:38.042Z,14.95
2023-03-24T04:52:06.693Z,15.80
2023-03-24T04:54:40.522Z,16.58
2023-03-24T04:57:14.473Z,13.98
2023-03-24T04:59:54.589Z,15.77
2023-03-24T05:02:21.938Z,14.38
2023-03-24T05:04:49.070Z,14.07
2023-03-24T05:07:24.340Z,14.05
2023-03-24T05:09:52.291Z,15.90
2023-03-24T05:12:26.392Z,14.18
2023-03-24T05:14:53.667Z,14.85
2023-03-24T05:17:20.809Z,13.52
2023-03-24T05:19:54.329Z,13.93
2023-03-24T05:22:21.542Z,13.43
2023-03-24T05:24:55.657Z,12.88
2023-03-24T05:27:22.898Z,11.98
2023-03-24T05:29:50.004Z,11.48
2023-03-24T05:32:23.595Z,13.55
2023-03-24T05:34:51.470Z,13.85
2023-03-24T05:37:25.585Z,15.32
2023-03-24T05:39:59.456Z,16.48
2023-03-24T05:42:40.588Z,13.90
2023-03-24T05:45:08.006Z,13.35
2023-03-24T05:47:35.368Z,14.32
2023-03-24T05:50:09.502Z,13.82
2023-03-24T05:52:36.885Z,14.57
2023-03-24T05:55:10.513Z,14.88
2023-03-24T05:57:44.356Z,14.70
2023-03-24T06:00:23.494Z,13.90
2023-03-24T06:02:51.210Z,13.10
2023-03-24T06:05:18.477Z,13.13
2023-03-24T06:07:52.434Z,13.38
2023-03-24T06:10:19.689Z,13.68
2023-03-24T06:12:53.560Z,12.73
2023-03-24T06:15:20.737Z,11.85
2023-03-24T06:17:47.957Z,13.05
2023-03-24T06:20:22.474Z,11.20
2023-03-24T06:22:50.297Z,12.45
2023-03-24T06:25:26.475Z,11.25
2023-03-24T06:27:53.714Z,12.15
2023-03-24T06:30:20.963Z,13.18
2023-03-24T06:32:54.541Z,12.07
2023-03-24T06:35:21.760Z,11.23
2023-03-24T06:37:55.787Z,11.90
2023-03-24T06:40:23.337Z,11.95
2023-03-24T06:45:24.470Z,9.02
2023-03-24T06:47:58.105Z,10.98
2023-03-24T06:50:41.192Z,10.60
2023-03-24T06:53:08.575Z,11.15
2023-03-24T06:55:35.651Z,12.63
2023-03-24T06:58:10.521Z,11.18
2023-03-24T07:00:44.861Z,11.27
2023-03-24T07:03:20.796Z,12.75
2023-03-24T07:05:48.010Z,12.05
2023-03-24T07:10:51.536Z,13.85
2023-03-24T07:13:18.824Z,11.68
2023-03-24T07:15:45.903Z,13.32
2023-03-24T07:18:20.494Z,15.82
2023-03-24T07:20:47.688Z,14.30
2023-03-24T07:23:21.564Z,14.02
2023-03-24T07:25:48.745Z,15.23
2023-03-24T07:28:15.932Z,15.30
2023-03-24T07:30:49.454Z,13.80
2023-03-24T07:33:16.832Z,13.52
2023-03-24T07:35:50.656Z,14.32
2023-03-24T07:38:17.859Z,11.93
2023-03-24T07:40:45.148Z,12.65
2023-03-24T07:43:19.526Z,12.10
2023-03-24T07:45:46.881Z,9.75
2023-03-24T07:48:21.665Z,9.23
2023-03-24T07:50:48.891Z,7.55
2023-03-24T07:53:26.467Z,7.30
2023-03-24T07:55:53.627Z,6.35
2023-03-24T07:58:40.497Z,5.25
2023-03-24T08:01:10.222Z,5.10
2023-03-24T08:03:37.837Z,6.03
2023-03-24T08:06:12.514Z,5.10
2023-03-24T08:08:39.702Z,4.38
2023-03-24T08:11:13.615Z,3.95
2023-03-24T08:13:40.853Z,4.28
2023-03-24T08:16:08.334Z,3.25
2023-03-24T08:21:09.707Z,2.65
2023-03-24T08:23:43.577Z,2.80
2023-03-24T08:26:13.539Z,2.28
2023-03-24T08:28:48.959Z,2.15
2023-03-24T08:31:16.310Z,2.35
2023-03-24T08:33:43.447Z,2.33
2023-03-24T08:36:17.563Z,2.42
2023-03-24T08:38:45.019Z,1.83
2023-03-24T08:41:18.705Z,1.63
2023-03-24T08:43:46.179Z,1.75
2023-03-24T08:46:15.433Z,1.90
2023-03-24T08:48:50.462Z,1.80
2023-03-24T08:51:18.243Z,1.70
2023-03-24T08:53:51.457Z,1.75
2023-03-24T08:56:19.166Z,1.50
2023-03-24T08:59:00.545Z,2.00
2023-03-24T09:01:28.426Z,1.60
2023-03-24T09:03:55.690Z,1.83
2023-03-24T09:06:29.614Z,1.80
2023-03-24T09:08:57.129Z,2.08
2023-03-24T09:11:31.522Z,2.22
2023-03-24T09:13:59.022Z,2.30
2023-03-24T09:19:01.687Z,1.85
2023-03-24T09:21:35.555Z,2.20
2023-03-24T09:24:03.253Z,2.53
2023-03-24T09:26:30.505Z,2.72
2023-03-24T09:29:04.522Z,2.35
2023-03-24T09:31:31.841Z,2.40
2023-03-24T09:34:06.647Z,3.10
2023-03-24T09:36:34.113Z,2.60
2023-03-24T09:39:01.239Z,2.33
2023-03-24T09:41:36.650Z,2.13
2023-03-24T09:44:03.873Z,2.00
2023-03-24T09:46:50.616Z,2.45
2023-03-24T09:49:28.856Z,2.40
2023-03-24T09:54:47.605Z,1.85
2023-03-24T09:57:27.573Z,1.95
2023-03-24T10:00:01.457Z,2.30
2023-03-24T10:02:38.146Z,2.35
2023-03-24T10:05:12.856Z,1.80
2023-03-24T10:07:58.648Z,2.25
2023-03-24T10:10:49.422Z,2.33
2023-03-24T10:13:27.490Z,2.25
2023-03-24T10:16:13.281Z,2.20
2023-03-24T10:19:08.964Z,2.78
2023-03-24T10:21:47.900Z,1.63
2023-03-24T10:24:45.644Z,2.40
2023-03-24T10:27:18.590Z,1.70
2023-03-24T10:29:53.549Z,1.83
2023-03-24T10:32:22.571Z,1.63
2023-03-24T10:35:00.549Z,1.40
2023-03-24T10:37:29.743Z,1.50
2023-03-24T10:39:57.239Z,1.42
2023-03-24T10:44:57.997Z,0.98
2023-03-24T10:47:33.281Z,1.60
2023-03-24T10:50:12.411Z,1.00
2023-03-24T10:52:48.577Z,1.90
2023-03-24T10:55:17.207Z,1.38
2023-03-24T10:58:05.456Z,0.68
2023-03-24T11:00:32.875Z,1.15
2023-03-24T11:03:08.777Z,1.00
2023-03-24T11:05:38.269Z,1.08
2023-03-24T11:08:24.490Z,0.88
2023-03-24T11:10:51.571Z,0.70
2023-03-24T11:13:26.721Z,0.88
2023-03-24T11:15:58.592Z,0.47
2023-03-24T11:18:26.249Z,1.35
2023-03-24T11:21:03.673Z,0.80
2023-03-24T11:23:31.997Z,0.60
2023-03-24T11:26:11.645Z,0.75
2023-03-24T11:28:43.216Z,0.65
2023-03-24T11:31:11.519Z,0.60
2023-03-24T11:33:57.552Z,0.40
2023-03-24T11:36:37.500Z,0.50
2023-03-24T11:39:07.806Z,0.40
2023-03-24T11:41:42.418Z,2.03
2023-03-24T11:44:23.180Z,2.58
2023-03-24T11:47:02.427Z,3.95
2023-03-24T11:49:39.321Z,2.80
2023-03-24T11:52:16.439Z,5.00
2023-03-24T11:54:46.211Z,4.82
2023-03-24T11:57:21.475Z,4.25
2023-03-24T12:00:10.031Z,4.20
2023-03-24T12:02:59.565Z,3.97
2023-03-24T12:06:05.231Z,3.53
2023-03-24T12:08:57.448Z,4.43
2023-03-24T12:11:42.728Z,3.75
2023-03-24T12:14:16.460Z,3.70
2023-03-24T12:16:51.850Z,3.60
2023-03-24T12:19:25.443Z,3.05
2023-03-24T12:22:01.452Z,2.85
2023-03-24T12:24:53.491Z,2.88
2023-03-24T12:27:20.797Z,2.88
2023-03-24T12:30:18.445Z,2.95
2023-03-24T12:32:51.098Z,3.00
2023-03-24T12:35:36.454Z,3.05
2023-03-24T12:38:14.240Z,2.58
2023-03-24T12:40:53.443Z,2.97
2023-03-24T12:43:27.056Z,2.60
2023-03-24T12:46:05.479Z,2.80
2023-03-24T12:48:39.136Z,3.15
2023-03-24T12:51:19.478Z,2.63
2023-03-24T12:53:53.790Z,3.20
2023-03-24T12:56:46.499Z,3.55
2023-03-24T12:59:33.176Z,2.85
2023-03-24T13:02:11.609Z,2.80
2023-03-24T13:04:42.176Z,2.40
2023-03-24T13:07:18.505Z,3.00
2023-03-24T13:09:55.983Z,2.60
2023-03-24T13:12:51.453Z,2.58
2023-03-24T13:15:22.146Z,2.08
2023-03-24T13:17:57.507Z,1.90
2023-03-24T13:20:35.274Z,1.38
2023-03-24T13:23:13.518Z,1.15
2023-03-24T13:28:11.929Z,0.80
2023-03-24T13:30:46.642Z,1.27
2023-03-24T13:33:26.570Z,0.82
2023-03-24T13:36:20.500Z,0.30
2023-03-24T13:38:56.496Z,0.45
2023-03-24T13:41:27.201Z,0.70
2023-03-24T13:44:09.494Z,0.28
2023-03-24T13:46:37.789Z,0.40
2023-03-24T13:49:06.794Z,0.28
2023-03-24T13:51:42.517Z,0.38
2023-03-24T13:54:12.380Z,0.30
2023-03-24T13:56:49.651Z,0.50
2023-03-24T13:59:32.654Z,0.47
2023-03-24T14:02:24.639Z,0.52
2023-03-24T14:05:09.341Z,0.73
2023-03-24T14:07:53.506Z,0.70
2023-03-24T14:10:20.941Z,0.52
2023-03-24T14:13:01.655Z,0.38
2023-03-24T14:15:36.176Z,0.60
2023-03-24T14:18:28.727Z,0.30
2023-03-24T14:20:59.145Z,0.60
2023-03-24T14:23:41.544Z,0.93
2023-03-24T14:26:13.370Z,0.50
2023-03-24T14:28:41.481Z,0.57
2023-03-24T14:31:19.695Z,0.98
2023-03-24T14:36:18.945Z,0.50
2023-03-24T14:38:52.537Z,0.50
2023-03-24T14:41:35.477Z,0.70
2023-03-24T14:44:09.502Z,0.70
2023-03-24T14:46:46.516Z,0.50
2023-03-24T14:49:16.574Z,0.70
2023-03-24T14:51:57.520Z,0.45
2023-03-24T14:54:34.558Z,0.82
2023-03-24T14:57:09.607Z,0.80
2023-03-24T15:00:02.490Z,0.60
2023-03-24T15:02:44.535Z,0.50
2023-03-24T15:05:15.078Z,0.30
2023-03-24T15:07:48.521Z,0.32
2023-03-24T15:10:19.347Z,0.63
2023-03-24T15:12:47.614Z,0.70
2023-03-24T15:15:25.489Z,0.45
2023-03-24T15:17:52.895Z,0.60
2023-03-24T15:20:28.539Z,0.30
2023-03-24T15:22:56.016Z,0.43
2023-03-24T15:27:58.530Z,0.55
2023-03-24T15:30:32.599Z,0.60
2023-03-24T15:33:00.713Z,0.90
2023-03-24T15:35:34.549Z,1.05
2023-03-24T15:38:01.811Z,1.40
2023-03-24T15:40:36.562Z,1.60
2023-03-24T15:43:07.897Z,1.23
2023-03-24T15:45:43.560Z,1.52
2023-03-24T15:48:15.379Z,2.70
2023-03-24T15:51:01.505Z,2.35
2023-03-24T15:53:39.632Z,2.45
2023-03-24T15:59:10.955Z,2.90
2023-03-24T16:01:51.615Z,3.97
2023-03-24T16:04:23.571Z,3.58
2023-03-24T16:06:58.546Z,4.55
2023-03-24T16:09:27.229Z,4.55
2023-03-24T16:11:54.617Z,4.18
2023-03-24T16:14:32.652Z,5.00
2023-03-24T16:17:01.011Z,6.72
2023-03-24T16:19:41.540Z,5.32
2023-03-24T16:22:18.988Z,5.50
2023-03-24T16:24:52.549Z,4.90
2023-03-24T16:27:19.693Z,6.05
2023-03-24T16:29:47.249Z,5.68
2023-03-24T16:34:47.804Z,5.30
2023-03-24T16:37:21.713Z,6.35
2023-03-24T16:39:48.986Z,5.60
2023-03-24T16:42:16.182Z,5.43
2023-03-24T16:44:50.610Z,7.05
2023-03-24T16:47:17.885Z,5.80
2023-03-24T16:49:51.604Z,7.13
2023-03-24T16:52:19.391Z,5.80
2023-03-24T16:54:46.534Z,6.00
2023-03-24T16:57:20.574Z,7.00
2023-03-24T16:59:54.812Z,6.70
2023-03-24T17:02:28.639Z,6.57
2023-03-24T17:04:57.121Z,7.72
2023-03-24T17:07:24.754Z,4.97
2023-03-24T17:09:58.536Z,5.93
2023-03-24T17:12:26.199Z,5.93
2023-03-24T17:14:59.618Z,8.95
2023-03-24T17:17:26.762Z,7.05
2023-03-24T17:19:53.841Z,7.63
2023-03-24T17:22:27.582Z,6.80
2023-03-24T17:24:58.216Z,6.50
2023-03-24T17:27:32.611Z,7.85
2023-03-24T17:29:59.734Z,7.22
2023-03-24T17:32:31.813Z,7.35
2023-03-24T17:35:06.580Z,6.22
2023-03-24T17:37:33.823Z,7.53
2023-03-24T17:40:08.694Z,6.50
2023-03-24T17:42:36.128Z,7.22
2023-03-24T17:45:03.873Z,6.32
2023-03-24T17:47:37.594Z,5.63
2023-03-24T17:50:09.551Z,7.88
2023-03-24T17:52:43.592Z,7.10
2023-03-24T17:55:11.359Z,8.15
2023-03-24T17:57:38.676Z,6.50
2023-03-24T18:00:18.569Z,6.65
2023-03-24T18:02:46.067Z,5.82
2023-03-24T18:07:47.152Z,7.05
2023-03-24T18:12:48.635Z,6.57
2023-03-24T18:15:15.800Z,7.50
2023-03-24T18:17:49.830Z,5.43
2023-03-24T18:20:17.573Z,5.97
2023-03-24T18:22:44.751Z,5.85
2023-03-24T18:25:19.772Z,7.00
2023-03-24T18:27:47.406Z,7.07
2023-03-24T18:30:21.854Z,6.22
2023-03-24T18:32:49.536Z,8.57
2023-03-24T18:35:16.724Z,6.10
2023-03-24T18:37:50.765Z,7.88
2023-03-24T18:40:18.000Z,8.55
2023-03-24T18:42:51.545Z,7.32
2023-03-24T18:45:18.847Z,8.48
2023-03-24T18:47:53.604Z,6.47
2023-03-24T18:50:20.862Z,5.97
2023-03-24T18:52:47.953Z,7.63
2023-03-24T18:55:24.547Z,6.03
2023-03-24T18:57:51.714Z,7.78
2023-03-24T19:00:32.689Z,7.93
2023-03-24T19:03:00.790Z,7.47
2023-03-24T19:05:29.392Z,7.03
2023-03-24T19:08:02.563Z,7.50
2023-03-24T19:10:29.737Z,8.60
2023-03-24T19:13:03.688Z,6.28
2023-03-24T19:15:31.076Z,7.32
2023-03-24T19:18:00.431Z,6.45
2023-03-24T19:20:35.745Z,6.50
2023-03-24T19:23:02.928Z,7.82
2023-03-24T19:25:36.723Z,8.52
2023-03-24T19:28:03.913Z,8.63
2023-03-24T19:30:31.102Z,8.05
2023-03-24T19:33:04.739Z,6.40
2023-03-24T19:35:31.959Z,6.32
2023-03-24T19:38:06.890Z,7.93
2023-03-24T19:40:34.078Z,6.22
2023-03-24T19:43:01.195Z,6.88
2023-03-24T19:45:34.727Z,7.10
2023-03-24T19:48:01.927Z,8.13
2023-03-24T19:50:35.816Z,9.95
2023-03-24T19:53:03.098Z,7.63
2023-03-24T19:55:31.385Z,9.27
2023-03-24T19:58:05.902Z,5.40
2023-03-24T20:00:39.632Z,6.15
2023-03-24T20:03:13.880Z,9.13
2023-03-24T20:05:41.204Z,7.65
2023-03-24T20:08:08.352Z,6.72
2023-03-24T20:10:43.576Z,7.68
2023-03-24T20:13:10.830Z,7.68
2023-03-24T20:15:44.658Z,7.43
2023-03-24T20:18:11.899Z,7.15
2023-03-24T20:20:45.791Z,6.65
2023-03-24T20:23:13.032Z,9.23
2023-03-24T20:25:43.241Z,7.97
2023-03-24T20:28:16.649Z,6.70
2023-03-24T20:30:45.145Z,7.82
2023-03-24T20:33:19.702Z,7.53
2023-03-24T20:35:47.068Z,8.98
2023-03-24T20:38:14.181Z,6.95
2023-03-24T20:40:48.788Z,7.93
2023-03-24T20:43:16.082Z,7.68
2023-03-24T20:45:49.980Z,5.80
2023-03-24T20:48:17.388Z,7.85
2023-03-24T20:50:44.468Z,8.13
2023-03-24T20:53:18.824Z,8.18
2023-03-24T20:55:49.141Z,8.68
2023-03-24T20:58:23.704Z,8.32
2023-03-24T21:00:57.662Z,8.52
2023-03-24T21:03:31.710Z,7.68
2023-03-24T21:06:05.576Z,9.07
2023-03-24T21:08:39.823Z,9.48
2023-03-24T21:11:13.621Z,8.85
2023-03-24T21:13:41.704Z,8.00
2023-03-24T21:16:09.403Z,9.18
2023-03-24T21:18:43.641Z,7.47
2023-03-24T21:21:12.430Z,5.72
2023-03-24T21:23:46.827Z,7.13
2023-03-24T21:26:15.727Z,7.65
2023-03-24T21:28:43.231Z,8.00
2023-03-24T21:31:19.145Z,10.25
2023-03-24T21:33:53.042Z,9.43
2023-03-24T21:36:27.629Z,9.23
2023-03-24T21:38:54.712Z,9.15
2023-03-24T21:41:23.052Z,8.90
2023-03-24T21:44:00.859Z,8.88
2023-03-24T21:46:28.173Z,10.88
2023-03-24T21:49:05.763Z,9.38
2023-03-24T21:51:34.277Z,9.45
2023-03-24T21:54:03.396Z,7.93
2023-03-24T21:56:38.732Z,8.07
2023-03-24T21:59:12.986Z,7.80
2023-03-24T22:01:53.972Z,8.82
2023-03-24T22:04:21.299Z,8.93
2023-03-24T22:06:48.460Z,9.55
2023-03-24T22:09:25.887Z,10.35
2023-03-24T22:11:57.124Z,9.60
2023-03-24T22:14:24.270Z,9.70
2023-03-24T22:16:58.757Z,11.13
2023-03-24T22:19:26.240Z,10.13
2023-03-24T22:22:07.023Z,8.55
2023-03-24T22:24:34.387Z,10.73
2023-03-24T22:27:02.156Z,8.50
2023-03-24T22:29:35.822Z,9.43
2023-03-24T22:32:03.115Z,10.68
2023-03-24T22:34:36.745Z,12.23
2023-03-24T22:37:03.838Z,10.90
2023-03-24T22:39:38.788Z,10.60
2023-03-24T22:42:05.962Z,10.93
2023-03-24T22:44:33.871Z,10.48
2023-03-24T22:47:09.711Z,10.15
2023-03-24T22:49:36.929Z,9.60
2023-03-24T22:52:10.864Z,10.93
2023-03-24T22:54:38.170Z,11.20
2023-03-24T22:57:05.359Z,11.15
2023-03-24T22:59:39.759Z,11.60
2023-03-24T23:02:13.720Z,9.82
2023-03-24T23:04:48.924Z,9.65
2023-03-24T23:07:17.409Z,9.90
2023-03-24T23:09:44.731Z,10.35
2023-03-24T23:12:19.769Z,10.45
2023-03-24T23:14:47.014Z,10.57
2023-03-24T23:17:15.863Z,10.63
2023-03-24T23:19:49.799Z,10.60
2023-03-24T23:22:17.322Z,10.93
2023-03-24T23:27:18.304Z,9.95
2023-03-24T23:29:45.480Z,8.23
2023-03-24T23:32:19.802Z,7.97
2023-03-24T23:34:48.760Z,8.35
2023-03-24T23:37:24.830Z,9.55
2023-03-24T23:39:51.998Z,8.85
2023-03-24T23:42:19.091Z,7.82
2023-03-24T23:44:52.778Z,8.55
2023-03-24T23:47:20.201Z,8.32
2023-03-24T23:49:53.776Z,7.45
2023-03-24T23:52:21.027Z,6.47
2023-03-24T23:54:54.788Z,6.47
2023-03-24T23:57:21.926Z,6.10
